sensor_id;sensor_type;location;lat;lon;timestamp;pressure;altitude;pressure_sealevel;temperature;humidity
4814;BME280;15375;48.540;9.268;2023-06-14T00:00:32;96859.41;;;15.17;62.88
4814;BME280;15375;48.540;9.268;2023-06-14T00:02:59;96859.84;;;14.88;59.66
4814;BME280;15375;48.540;9.268;2023-06-14T00:05:25;96850.56;;;14.67;63.97
4814;BME280;15375;48.540;9.268;2023-06-14T00:07:50;96859.53;;;14.68;61.44
4814;BME280;15375;48.540;9.268;2023-06-14T00:10:19;96866.56;;;15.14;64.80
4814;BME280;15375;48.540;9.268;2023-06-14T00:12:44;96860.25;;;15.68;61.33
4814;BME280;15375;48.540;9.268;2023-06-14T00:15:10;96843.38;;;15.24;61.82
4814;BME280;15375;48.540;9.268;2023-06-14T00:17:36;96864.00;;;15.20;64.99
4814;BME280;15375;48.540;9.268;2023-06-14T00:20:03;96871.06;;;15.90;64.43
4814;BME280;15375;48.540;9.268;2023-06-14T00:22:31;96867.34;;;14.97;60.11
4814;BME280;15375;48.540;9.268;2023-06-14T00:24:58;96846.88;;;15.25;65.97
4814;BME280;15375;48.540;9.268;2023-06-14T00:27:23;96860.31;;;15.14;60.73
4814;BME280;15375;48.540;9.268;2023-06-14T00:29:50;96863.50;;;14.67;65.74
4814;BME280;15375;48.540;9.268;2023-06-14T00:32:15;96855.13;;;15.07;63.87
4814;BME280;15375;48.540;9.268;2023-06-14T00:34:41;96853.91;;;14.81;60.60
4814;BME280;15375;48.540;9.268;2023-06-14T00:37:06;96856.50;;;14.17;63.29
4814;BME280;15375;48.540;9.268;2023-06-14T00:39:31;96849.34;;;14.20;63.53
4814;BME280;15375;48.540;9.268;2023-06-14T00:41:57;96844.41;;;14.05;65.76
4814;BME280;15375;48.540;9.268;2023-06-14T00:44:22;96849.75;;;14.58;68.11
4814;BME280;15375;48.540;9.268;2023-06-14T00:46:49;96835.91;;;14.80;64.58
4814;BME280;15375;48.540;9.268;2023-06-14T00:49:15;96845.84;;;14.19;64.30
4814;BME280;15375;48.540;9.268;2023-06-14T00:51:42;96846.22;;;14.48;66.81
4814;BME280;15375;48.540;9.268;2023-06-14T00:54:09;96832.09;;;14.86;64.94
4814;BME280;15375;48.540;9.268;2023-06-14T00:56:39;96846.44;;;14.23;63.23
4814;BME280;15375;48.540;9.268;2023-06-14T00:59:04;96842.44;;;14.15;63.45
4814;BME280;15375;48.540;9.268;2023-06-14T01:01:33;96835.19;;;14.30;63.11
4814;BME280;15375;48.540;9.268;2023-06-14T01:03:59;96851.47;;;14.64;64.27
4814;BME280;15375;48.540;9.268;2023-06-14T01:06:55;96859.63;;;14.37;63.69
4814;BME280;15375;48.540;9.268;2023-06-14T01:12:15;96844.47;;;14.73;65.42
4814;BME280;15375;48.540;9.268;2023-06-14T01:14:42;96846.41;;;14.54;62.15
4814;BME280;15375;48.540;9.268;2023-06-14T01:17:08;96849.88;;;14.45;62.89
4814;BME280;15375;48.540;9.268;2023-06-14T01:19:42;96826.81;;;13.85;63.39
4814;BME280;15375;48.540;9.268;2023-06-14T01:22:09;96845.88;;;13.88;64.95
4814;BME280;15375;48.540;9.268;2023-06-14T01:24:35;96844.28;;;13.48;63.29
4814;BME280;15375;48.540;9.268;2023-06-14T01:27:02;96862.25;;;13.49;65.26
4814;BME280;15375;48.540;9.268;2023-06-14T01:29:28;96858.78;;;13.26;65.11
4814;BME280;15375;48.540;9.268;2023-06-14T01:31:58;96812.56;;;12.94;65.21
4814;BME280;15375;48.540;9.268;2023-06-14T01:34:24;96865.41;;;13.16;67.19
4814;BME280;15375;48.540;9.268;2023-06-14T01:36:49;96844.41;;;13.01;65.69
4814;BME280;15375;48.540;9.268;2023-06-14T01:39:15;96858.91;;;13.23;68.52
4814;BME280;15375;48.540;9.268;2023-06-14T01:41:43;96838.03;;;13.16;65.33
4814;BME280;15375;48.540;9.268;2023-06-14T01:44:10;96841.50;;;13.17;66.93
4814;BME280;15375;48.540;9.268;2023-06-14T01:46:36;96858.63;;;13.30;65.54
4814;BME280;15375;48.540;9.268;2023-06-14T01:49:01;96844.44;;;13.22;65.57
4814;BME280;15375;48.540;9.268;2023-06-14T01:51:27;96841.31;;;13.33;66.77
4814;BME280;15375;48.540;9.268;2023-06-14T01:53:53;96841.53;;;13.04;65.70
4814;BME280;15375;48.540;9.268;2023-06-14T01:56:18;96847.16;;;13.01;66.46
4814;BME280;15375;48.540;9.268;2023-06-14T01:58:43;96849.13;;;13.00;66.27
4814;BME280;15375;48.540;9.268;2023-06-14T02:01:09;96852.47;;;13.04;68.03
4814;BME280;15375;48.540;9.268;2023-06-14T02:03:36;96845.41;;;13.28;68.53
4814;BME280;15375;48.540;9.268;2023-06-14T02:06:03;96826.69;;;13.58;70.51
4814;BME280;15375;48.540;9.268;2023-06-14T02:08:28;96842.28;;;13.70;68.57
4814;BME280;15375;48.540;9.268;2023-06-14T02:10:54;96837.94;;;13.90;67.69
4814;BME280;15375;48.540;9.268;2023-06-14T02:13:19;96851.84;;;13.96;65.09
4814;BME280;15375;48.540;9.268;2023-06-14T02:15:44;96858.69;;;13.91;62.94
4814;BME280;15375;48.540;9.268;2023-06-14T02:18:10;96832.78;;;13.09;65.81
4814;BME280;15375;48.540;9.268;2023-06-14T02:20:36;96829.59;;;12.76;67.33
4814;BME280;15375;48.540;9.268;2023-06-14T02:23:01;96865.78;;;12.59;69.31
4814;BME280;15375;48.540;9.268;2023-06-14T02:25:27;96849.91;;;12.54;70.97
4814;BME280;15375;48.540;9.268;2023-06-14T02:27:53;96856.22;;;12.76;70.02
4814;BME280;15375;48.540;9.268;2023-06-14T02:30:20;96865.53;;;12.78;69.32
4814;BME280;15375;48.540;9.268;2023-06-14T02:32:46;96846.44;;;12.88;68.69
4814;BME280;15375;48.540;9.268;2023-06-14T02:35:11;96842.56;;;13.19;69.66
4814;BME280;15375;48.540;9.268;2023-06-14T02:37:38;96851.88;;;13.43;68.23
4814;BME280;15375;48.540;9.268;2023-06-14T02:40:05;96847.41;;;13.37;68.52
4814;BME280;15375;48.540;9.268;2023-06-14T02:42:31;96852.69;;;13.53;68.92
4814;BME280;15375;48.540;9.268;2023-06-14T02:44:56;96860.34;;;13.89;70.05
4814;BME280;15375;48.540;9.268;2023-06-14T02:47:25;96854.41;;;13.90;67.80
4814;BME280;15375;48.540;9.268;2023-06-14T02:49:50;96830.53;;;13.17;65.65
4814;BME280;15375;48.540;9.268;2023-06-14T02:52:16;96863.81;;;12.94;67.86
4814;BME280;15375;48.540;9.268;2023-06-14T02:54:41;96839.06;;;12.63;68.06
4814;BME280;15375;48.540;9.268;2023-06-14T02:57:07;96864.41;;;12.29;69.01
4814;BME280;15375;48.540;9.268;2023-06-14T02:59:33;96868.34;;;12.41;70.47
4814;BME280;15375;48.540;9.268;2023-06-14T03:01:59;96854.91;;;11.96;70.48
4814;BME280;15375;48.540;9.268;2023-06-14T03:04:24;96880.50;;;12.02;75.07
4814;BME280;15375;48.540;9.268;2023-06-14T03:06:51;96848.44;;;12.74;70.86
4814;BME280;15375;48.540;9.268;2023-06-14T03:09:17;96869.59;;;13.08;69.69
4814;BME280;15375;48.540;9.268;2023-06-14T03:11:42;96869.72;;;12.92;70.09
4814;BME280;15375;48.540;9.268;2023-06-14T03:14:08;96853.06;;;12.65;68.78
4814;BME280;15375;48.540;9.268;2023-06-14T03:16:33;96876.00;;;12.46;70.14
4814;BME280;15375;48.540;9.268;2023-06-14T03:18:59;96821.69;;;12.10;72.08
4814;BME280;15375;48.540;9.268;2023-06-14T03:21:25;96870.97;;;12.32;70.03
4814;BME280;15375;48.540;9.268;2023-06-14T03:23:51;96846.28;;;11.97;72.26
4814;BME280;15375;48.540;9.268;2023-06-14T03:26:18;96850.91;;;11.46;73.22
4814;BME280;15375;48.540;9.268;2023-06-14T03:28:44;96872.28;;;11.35;73.99
4814;BME280;15375;48.540;9.268;2023-06-14T03:31:11;96857.38;;;11.11;74.73
4814;BME280;15375;48.540;9.268;2023-06-14T03:33:37;96876.13;;;11.38;77.67
4814;BME280;15375;48.540;9.268;2023-06-14T03:36:03;96889.25;;;12.09;75.71
4814;BME280;15375;48.540;9.268;2023-06-14T03:38:29;96890.25;;;12.15;73.40
4814;BME280;15375;48.540;9.268;2023-06-14T03:40:54;96875.66;;;12.44;73.75
4814;BME280;15375;48.540;9.268;2023-06-14T03:43:19;96852.69;;;12.41;68.85
4814;BME280;15375;48.540;9.268;2023-06-14T03:45:45;96806.78;;;12.11;68.07
4814;BME280;15375;48.540;9.268;2023-06-14T03:48:10;96866.81;;;12.27;69.51
4814;BME280;15375;48.540;9.268;2023-06-14T03:50:36;96894.56;;;12.98;69.93
4814;BME280;15375;48.540;9.268;2023-06-14T03:53:04;96871.16;;;12.84;68.19
4814;BME280;15375;48.540;9.268;2023-06-14T03:55:29;96882.25;;;12.80;72.78
4814;BME280;15375;48.540;9.268;2023-06-14T03:57:56;96884.78;;;13.74;71.14
4814;BME280;15375;48.540;9.268;2023-06-14T04:00:22;96899.72;;;14.04;66.03
4814;BME280;15375;48.540;9.268;2023-06-14T04:02:47;96883.03;;;13.89;66.79
4814;BME280;15375;48.540;9.268;2023-06-14T04:05:13;96915.28;;;14.07;70.48
4814;BME280;15375;48.540;9.268;2023-06-14T04:07:41;96878.38;;;14.08;67.33
4814;BME280;15375;48.540;9.268;2023-06-14T04:10:11;96920.66;;;14.20;68.20
4814;BME280;15375;48.540;9.268;2023-06-14T04:12:36;96915.59;;;13.87;67.84
4814;BME280;15375;48.540;9.268;2023-06-14T04:15:02;96919.59;;;14.17;70.20
4814;BME280;15375;48.540;9.268;2023-06-14T04:17:27;96911.78;;;14.16;66.57
4814;BME280;15375;48.540;9.268;2023-06-14T04:19:53;96928.31;;;14.64;67.74
4814;BME280;15375;48.540;9.268;2023-06-14T04:22:18;96897.41;;;15.09;63.29
4814;BME280;15375;48.540;9.268;2023-06-14T04:24:43;96934.94;;;15.85;63.49
4814;BME280;15375;48.540;9.268;2023-06-14T04:27:10;96925.97;;;16.59;59.32
4814;BME280;15375;48.540;9.268;2023-06-14T04:29:35;96925.13;;;16.35;58.42
4814;BME280;15375;48.540;9.268;2023-06-14T04:32:01;96933.88;;;15.64;59.03
4814;BME280;15375;48.540;9.268;2023-06-14T04:34:26;96937.22;;;15.41;60.97
4814;BME280;15375;48.540;9.268;2023-06-14T04:36:55;96930.69;;;14.44;62.08
4814;BME280;15375;48.540;9.268;2023-06-14T04:39:21;96936.47;;;14.37;62.67
4814;BME280;15375;48.540;9.268;2023-06-14T04:41:47;96929.56;;;14.91;61.89
4814;BME280;15375;48.540;9.268;2023-06-14T04:44:13;96935.38;;;15.02;62.37
4814;BME280;15375;48.540;9.268;2023-06-14T04:46:39;96946.69;;;15.22;63.39
4814;BME280;15375;48.540;9.268;2023-06-14T04:49:17;96946.72;;;15.13;65.20
4814;BME280;15375;48.540;9.268;2023-06-14T04:51:43;96936.63;;;15.19;63.94
4814;BME280;15375;48.540;9.268;2023-06-14T04:54:09;96927.78;;;15.33;62.75
4814;BME280;15375;48.540;9.268;2023-06-14T04:56:38;96935.81;;;16.75;58.68
4814;BME280;15375;48.540;9.268;2023-06-14T04:59:04;96939.69;;;16.68;58.12
4814;BME280;15375;48.540;9.268;2023-06-14T05:01:32;96943.00;;;16.39;58.76
4814;BME280;15375;48.540;9.268;2023-06-14T05:03:58;96925.84;;;16.12;59.11
4814;BME280;15375;48.540;9.268;2023-06-14T05:06:24;96958.13;;;16.53;60.02
4814;BME280;15375;48.540;9.268;2023-06-14T05:08:51;96960.28;;;17.53;56.97
4814;BME280;15375;48.540;9.268;2023-06-14T05:11:16;96941.38;;;17.75;52.21
4814;BME280;15375;48.540;9.268;2023-06-14T05:13:44;96947.97;;;17.39;53.28
4814;BME280;15375;48.540;9.268;2023-06-14T05:16:11;96936.31;;;16.97;54.13
4814;BME280;15375;48.540;9.268;2023-06-14T05:18:36;96956.31;;;17.06;55.24
4814;BME280;15375;48.540;9.268;2023-06-14T05:21:03;96953.66;;;16.88;56.02
4814;BME280;15375;48.540;9.268;2023-06-14T05:23:30;96942.50;;;18.56;53.04
4814;BME280;15375;48.540;9.268;2023-06-14T05:25:56;96948.13;;;20.03;50.43
4814;BME280;15375;48.540;9.268;2023-06-14T05:28:22;96946.25;;;20.46;48.57
4814;BME280;15375;48.540;9.268;2023-06-14T05:30:47;96941.22;;;22.71;44.07
4814;BME280;15375;48.540;9.268;2023-06-14T05:33:13;96948.50;;;25.06;39.97
4814;BME280;15375;48.540;9.268;2023-06-14T05:35:38;96945.03;;;27.12;35.90
4814;BME280;15375;48.540;9.268;2023-06-14T05:38:03;96963.31;;;27.00;35.92
4814;BME280;15375;48.540;9.268;2023-06-14T05:40:29;96963.44;;;27.73;34.66
4814;BME280;15375;48.540;9.268;2023-06-14T05:42:54;96960.66;;;27.60;33.78
4814;BME280;15375;48.540;9.268;2023-06-14T05:45:20;96957.72;;;26.69;34.46
4814;BME280;15375;48.540;9.268;2023-06-14T05:47:45;96967.94;;;27.24;35.85
4814;BME280;15375;48.540;9.268;2023-06-14T05:50:11;96968.31;;;27.47;34.31
4814;BME280;15375;48.540;9.268;2023-06-14T05:52:36;96951.53;;;28.07;33.61
4814;BME280;15375;48.540;9.268;2023-06-14T05:55:03;96952.50;;;26.46;34.85
4814;BME280;15375;48.540;9.268;2023-06-14T05:57:28;96955.03;;;26.95;33.81
4814;BME280;15375;48.540;9.268;2023-06-14T05:59:54;96957.66;;;27.45;34.25
4814;BME280;15375;48.540;9.268;2023-06-14T06:02:19;96966.41;;;28.56;33.47
4814;BME280;15375;48.540;9.268;2023-06-14T06:04:45;96966.88;;;29.30;33.20
4814;BME280;15375;48.540;9.268;2023-06-14T06:07:10;96958.19;;;29.92;31.78
4814;BME280;15375;48.540;9.268;2023-06-14T06:09:36;96957.44;;;30.50;29.97
4814;BME280;15375;48.540;9.268;2023-06-14T06:12:01;96962.72;;;29.95;30.62
4814;BME280;15375;48.540;9.268;2023-06-14T06:14:26;96970.84;;;29.14;30.77
4814;BME280;15375;48.540;9.268;2023-06-14T06:16:53;96971.78;;;28.67;32.69
4814;BME280;15375;48.540;9.268;2023-06-14T06:19:18;96982.66;;;29.40;33.29
4814;BME280;15375;48.540;9.268;2023-06-14T06:21:43;96970.44;;;30.09;31.91
4814;BME280;15375;48.540;9.268;2023-06-14T06:24:09;96966.66;;;30.73;31.66
4814;BME280;15375;48.540;9.268;2023-06-14T06:26:34;96965.41;;;31.82;29.30
4814;BME280;15375;48.540;9.268;2023-06-14T06:29:00;96961.63;;;30.05;30.42
4814;BME280;15375;48.540;9.268;2023-06-14T06:31:25;96978.56;;;30.20;31.93
4814;BME280;15375;48.540;9.268;2023-06-14T06:33:52;96958.72;;;31.47;30.21
4814;BME280;15375;48.540;9.268;2023-06-14T06:36:19;96975.25;;;31.43;29.18
4814;BME280;15375;48.540;9.268;2023-06-14T06:38:45;96973.97;;;31.36;30.01
4814;BME280;15375;48.540;9.268;2023-06-14T06:41:10;96981.44;;;31.72;29.74
4814;BME280;15375;48.540;9.268;2023-06-14T06:43:36;96969.84;;;31.22;30.26
4814;BME280;15375;48.540;9.268;2023-06-14T06:46:01;96974.97;;;30.93;29.48
4814;BME280;15375;48.540;9.268;2023-06-14T06:48:27;96982.03;;;30.57;28.92
4814;BME280;15375;48.540;9.268;2023-06-14T06:50:52;96986.06;;;28.22;32.20
4814;BME280;15375;48.540;9.268;2023-06-14T06:53:18;96990.53;;;25.62;36.11
4814;BME280;15375;48.540;9.268;2023-06-14T06:55:44;96992.34;;;25.11;37.31
4814;BME280;15375;48.540;9.268;2023-06-14T06:58:09;97000.63;;;24.27;38.03
4814;BME280;15375;48.540;9.268;2023-06-14T07:00:35;96982.03;;;23.94;37.63
4814;BME280;15375;48.540;9.268;2023-06-14T07:03:00;97000.50;;;23.51;40.24
4814;BME280;15375;48.540;9.268;2023-06-14T07:05:26;97005.78;;;23.55;38.70
4814;BME280;15375;48.540;9.268;2023-06-14T07:07:52;97008.06;;;23.56;39.31
4814;BME280;15375;48.540;9.268;2023-06-14T07:10:17;96991.41;;;24.43;39.48
4814;BME280;15375;48.540;9.268;2023-06-14T07:12:43;96999.75;;;24.43;37.76
4814;BME280;15375;48.540;9.268;2023-06-14T07:15:09;96987.34;;;23.98;37.68
4814;BME280;15375;48.540;9.268;2023-06-14T07:17:38;97010.31;;;23.69;39.46
4814;BME280;15375;48.540;9.268;2023-06-14T07:20:04;96980.44;;;23.64;37.67
4814;BME280;15375;48.540;9.268;2023-06-14T07:22:33;97012.09;;;23.61;38.93
4814;BME280;15375;48.540;9.268;2023-06-14T07:24:58;97014.47;;;23.18;39.57
4814;BME280;15375;48.540;9.268;2023-06-14T07:27:24;97023.06;;;22.59;39.41
4814;BME280;15375;48.540;9.268;2023-06-14T07:29:49;96990.22;;;22.24;40.06
4814;BME280;15375;48.540;9.268;2023-06-14T07:32:14;97008.44;;;22.97;40.41
4814;BME280;15375;48.540;9.268;2023-06-14T07:34:40;97004.84;;;23.24;39.89
4814;BME280;15375;48.540;9.268;2023-06-14T07:37:05;97018.09;;;23.81;40.13
4814;BME280;15375;48.540;9.268;2023-06-14T07:39:31;97023.66;;;24.33;39.36
4814;BME280;15375;48.540;9.268;2023-06-14T07:41:56;97024.09;;;23.96;39.20
4814;BME280;15375;48.540;9.268;2023-06-14T07:44:21;97012.91;;;24.02;38.67
4814;BME280;15375;48.540;9.268;2023-06-14T07:46:47;97025.44;;;24.31;39.66
4814;BME280;15375;48.540;9.268;2023-06-14T07:49:14;97035.13;;;24.59;40.14
4814;BME280;15375;48.540;9.268;2023-06-14T07:51:40;97026.22;;;24.26;39.48
4814;BME280;15375;48.540;9.268;2023-06-14T07:54:05;97027.47;;;24.65;39.83
4814;BME280;15375;48.540;9.268;2023-06-14T07:56:32;97016.41;;;24.90;38.54
4814;BME280;15375;48.540;9.268;2023-06-14T07:58:57;97027.81;;;25.16;38.16
4814;BME280;15375;48.540;9.268;2023-06-14T08:01:23;97021.81;;;24.41;39.14
4814;BME280;15375;48.540;9.268;2023-06-14T08:03:50;97034.34;;;24.64;39.03
4814;BME280;15375;48.540;9.268;2023-06-14T08:06:16;97028.25;;;24.25;38.45
4814;BME280;15375;48.540;9.268;2023-06-14T08:08:41;97028.91;;;24.78;38.22
4814;BME280;15375;48.540;9.268;2023-06-14T08:11:07;97031.00;;;24.31;38.70
4814;BME280;15375;48.540;9.268;2023-06-14T08:13:32;97017.19;;;24.14;38.54
4814;BME280;15375;48.540;9.268;2023-06-14T08:15:58;97016.34;;;24.25;38.58
4814;BME280;15375;48.540;9.268;2023-06-14T08:18:23;97023.53;;;25.15;37.79
4814;BME280;15375;48.540;9.268;2023-06-14T08:20:49;97022.91;;;24.27;37.65
4814;BME280;15375;48.540;9.268;2023-06-14T08:23:15;97017.63;;;24.59;37.81
4814;BME280;15375;48.540;9.268;2023-06-14T08:25:44;97015.72;;;24.43;37.64
4814;BME280;15375;48.540;9.268;2023-06-14T08:28:09;97020.78;;;25.09;38.12
4814;BME280;15375;48.540;9.268;2023-06-14T08:30:35;97033.06;;;25.25;36.68
4814;BME280;15375;48.540;9.268;2023-06-14T08:33:00;97032.97;;;24.77;36.53
4814;BME280;15375;48.540;9.268;2023-06-14T08:35:26;97018.78;;;24.74;37.30
4814;BME280;15375;48.540;9.268;2023-06-14T08:37:51;97029.78;;;25.21;37.35
4814;BME280;15375;48.540;9.268;2023-06-14T08:40:23;97028.44;;;25.76;36.18
4814;BME280;15375;48.540;9.268;2023-06-14T08:42:53;97021.09;;;25.54;36.63
4814;BME280;15375;48.540;9.268;2023-06-14T08:45:23;97038.19;;;25.69;37.23
4814;BME280;15375;48.540;9.268;2023-06-14T08:47:49;97027.66;;;25.32;37.48
4814;BME280;15375;48.540;9.268;2023-06-14T08:50:23;97034.38;;;25.18;37.46
4814;BME280;15375;48.540;9.268;2023-06-14T08:52:53;97035.53;;;24.74;36.98
4814;BME280;15375;48.540;9.268;2023-06-14T08:55:20;97030.50;;;24.67;38.03
4814;BME280;15375;48.540;9.268;2023-06-14T08:57:48;97028.78;;;24.94;36.85
4814;BME280;15375;48.540;9.268;2023-06-14T09:00:14;97028.41;;;25.09;37.25
4814;BME280;15375;48.540;9.268;2023-06-14T09:02:40;97038.75;;;25.14;37.54
4814;BME280;15375;48.540;9.268;2023-06-14T09:05:09;97033.31;;;25.51;36.88
4814;BME280;15375;48.540;9.268;2023-06-14T09:07:37;97002.44;;;25.38;37.26
4814;BME280;15375;48.540;9.268;2023-06-14T09:12:35;97024.34;;;25.34;35.16
4814;BME280;15375;48.540;9.268;2023-06-14T09:15:02;97024.72;;;25.49;35.25
4814;BME280;15375;48.540;9.268;2023-06-14T09:17:32;97033.38;;;25.46;36.38
4814;BME280;15375;48.540;9.268;2023-06-14T09:19:58;97020.16;;;25.70;35.28
4814;BME280;15375;48.540;9.268;2023-06-14T09:22:24;97031.22;;;25.57;35.18
4814;BME280;15375;48.540;9.268;2023-06-14T09:24:49;97013.75;;;25.27;35.06
4814;BME280;15375;48.540;9.268;2023-06-14T09:27:15;97009.47;;;25.50;35.76
4814;BME280;15375;48.540;9.268;2023-06-14T09:29:41;97009.50;;;26.06;34.59
4814;BME280;15375;48.540;9.268;2023-06-14T09:32:06;97013.19;;;26.20;34.49
4814;BME280;15375;48.540;9.268;2023-06-14T09:34:33;97009.16;;;26.34;33.96
4814;BME280;15375;48.540;9.268;2023-06-14T09:36:59;97011.66;;;26.19;34.67
4814;BME280;15375;48.540;9.268;2023-06-14T09:39:25;97016.56;;;26.82;35.75
4814;BME280;15375;48.540;9.268;2023-06-14T09:41:50;97020.66;;;26.62;34.54
4814;BME280;15375;48.540;9.268;2023-06-14T09:44:16;97019.66;;;26.28;33.94
4814;BME280;15375;48.540;9.268;2023-06-14T09:46:43;97028.81;;;25.67;34.00
4814;BME280;15375;48.540;9.268;2023-06-14T09:49:09;97023.53;;;25.39;34.32
4814;BME280;15375;48.540;9.268;2023-06-14T09:51:37;97028.69;;;25.78;33.98
4814;BME280;15375;48.540;9.268;2023-06-14T09:54:08;97022.91;;;26.13;33.50
4814;BME280;15375;48.540;9.268;2023-06-14T09:56:38;97025.09;;;26.39;35.44
4814;BME280;15375;48.540;9.268;2023-06-14T09:59:06;97019.34;;;27.13;33.55
4814;BME280;15375;48.540;9.268;2023-06-14T10:01:35;97025.84;;;27.48;32.35
4814;BME280;15375;48.540;9.268;2023-06-14T10:04:07;97025.69;;;26.13;34.42
4814;BME280;15375;48.540;9.268;2023-06-14T10:06:36;97023.06;;;26.21;33.53
4814;BME280;15375;48.540;9.268;2023-06-14T10:09:03;97013.53;;;26.48;33.64
4814;BME280;15375;48.540;9.268;2023-06-14T10:11:29;97006.00;;;26.56;32.87
4814;BME280;15375;48.540;9.268;2023-06-14T10:13:56;97000.19;;;26.22;32.55
4814;BME280;15375;48.540;9.268;2023-06-14T10:16:33;97013.72;;;27.00;32.58
4814;BME280;15375;48.540;9.268;2023-06-14T10:24:15;97008.38;;;27.55;30.80
4814;BME280;15375;48.540;9.268;2023-06-14T10:27:00;97017.34;;;27.53;31.59
4814;BME280;15375;48.540;9.268;2023-06-14T10:29:29;97011.72;;;27.40;31.68
4814;BME280;15375;48.540;9.268;2023-06-14T10:31:59;97005.56;;;27.42;30.74
4814;BME280;15375;48.540;9.268;2023-06-14T10:34:29;97014.53;;;26.82;31.48
4814;BME280;15375;48.540;9.268;2023-06-14T10:39:32;97018.88;;;26.46;32.94
4814;BME280;15375;48.540;9.268;2023-06-14T10:42:01;97013.13;;;26.57;32.05
4814;BME280;15375;48.540;9.268;2023-06-14T10:46:55;96997.56;;;26.75;31.36
4814;BME280;15375;48.540;9.268;2023-06-14T10:52:15;96989.84;;;27.65;31.74
4814;BME280;15375;48.540;9.268;2023-06-14T10:57:39;96998.19;;;26.99;32.91
4814;BME280;15375;48.540;9.268;2023-06-14T11:00:05;97006.84;;;27.28;32.80
4814;BME280;15375;48.540;9.268;2023-06-14T11:05:14;96998.22;;;27.12;34.30
4814;BME280;15375;48.540;9.268;2023-06-14T11:08:02;97007.31;;;27.45;33.49
4814;BME280;15375;48.540;9.268;2023-06-14T11:13:02;97000.38;;;28.11;31.67
4814;BME280;15375;48.540;9.268;2023-06-14T11:15:32;96997.88;;;28.08;32.11
4814;BME280;15375;48.540;9.268;2023-06-14T11:18:00;96996.44;;;26.83;33.20
4814;BME280;15375;48.540;9.268;2023-06-14T11:20:29;96992.63;;;27.26;33.17
4814;BME280;15375;48.540;9.268;2023-06-14T11:22:54;96992.50;;;27.97;31.10
4814;BME280;15375;48.540;9.268;2023-06-14T11:25:20;96993.28;;;28.31;30.69
4814;BME280;15375;48.540;9.268;2023-06-14T11:27:45;96992.72;;;27.99;30.69
4814;BME280;15375;48.540;9.268;2023-06-14T11:30:12;97001.56;;;27.24;31.92
4814;BME280;15375;48.540;9.268;2023-06-14T11:32:38;96977.56;;;27.55;31.54
4814;BME280;15375;48.540;9.268;2023-06-14T11:35:04;96998.13;;;27.70;31.93
4814;BME280;15375;48.540;9.268;2023-06-14T11:37:31;96997.13;;;27.02;31.65
4814;BME280;15375;48.540;9.268;2023-06-14T11:39:58;96986.53;;;26.82;33.68
4814;BME280;15375;48.540;9.268;2023-06-14T11:42:26;96994.00;;;26.93;33.08
4814;BME280;15375;48.540;9.268;2023-06-14T11:44:53;96994.66;;;27.12;32.40
4814;BME280;15375;48.540;9.268;2023-06-14T11:47:18;97002.97;;;27.17;33.58
4814;BME280;15375;48.540;9.268;2023-06-14T11:49:44;96998.16;;;27.57;32.94
4814;BME280;15375;48.540;9.268;2023-06-14T11:52:09;96985.91;;;28.07;32.64
4814;BME280;15375;48.540;9.268;2023-06-14T11:54:36;96988.63;;;28.33;32.03
4814;BME280;15375;48.540;9.268;2023-06-14T11:57:02;96985.25;;;28.14;31.48
4814;BME280;15375;48.540;9.268;2023-06-14T11:59:29;96987.03;;;27.52;32.49
4814;BME280;15375;48.540;9.268;2023-06-14T12:01:56;96998.84;;;28.10;32.63
4814;BME280;15375;48.540;9.268;2023-06-14T12:04:26;97001.63;;;28.23;31.41
4814;BME280;15375;48.540;9.268;2023-06-14T12:06:52;96990.19;;;28.76;31.26
4814;BME280;15375;48.540;9.268;2023-06-14T12:09:20;96989.34;;;28.13;29.73
4814;BME280;15375;48.540;9.268;2023-06-14T12:11:49;96994.44;;;28.69;30.84
4814;BME280;15375;48.540;9.268;2023-06-14T12:14:14;96976.25;;;28.29;29.88
4814;BME280;15375;48.540;9.268;2023-06-14T12:16:41;96990.91;;;27.36;30.84
4814;BME280;15375;48.540;9.268;2023-06-14T12:19:16;96990.69;;;26.76;32.43
4814;BME280;15375;48.540;9.268;2023-06-14T12:21:43;96990.69;;;27.07;31.54
4814;BME280;15375;48.540;9.268;2023-06-14T12:24:12;96987.91;;;27.73;32.53
4814;BME280;15375;48.540;9.268;2023-06-14T12:26:38;96979.50;;;27.60;29.53
4814;BME280;15375;48.540;9.268;2023-06-14T12:29:05;96976.84;;;27.41;30.41
4814;BME280;15375;48.540;9.268;2023-06-14T12:31:31;96983.31;;;26.91;30.73
4814;BME280;15375;48.540;9.268;2023-06-14T12:33:56;96970.06;;;26.79;32.19
4814;BME280;15375;48.540;9.268;2023-06-14T12:36:22;96980.06;;;26.24;33.68
4814;BME280;15375;48.540;9.268;2023-06-14T12:38:47;96967.28;;;26.10;33.39
4814;BME280;15375;48.540;9.268;2023-06-14T12:41:13;96968.06;;;25.91;32.92
4814;BME280;15375;48.540;9.268;2023-06-14T12:43:39;96978.09;;;26.00;34.31
4814;BME280;15375;48.540;9.268;2023-06-14T12:46:05;96983.28;;;26.46;34.23
4814;BME280;15375;48.540;9.268;2023-06-14T12:48:30;96979.25;;;26.60;32.54
4814;BME280;15375;48.540;9.268;2023-06-14T12:50:56;96967.94;;;26.66;32.06
4814;BME280;15375;48.540;9.268;2023-06-14T12:53:22;96965.88;;;26.22;32.68
4814;BME280;15375;48.540;9.268;2023-06-14T12:55:48;96965.88;;;26.22;32.93
4814;BME280;15375;48.540;9.268;2023-06-14T12:58:13;96969.22;;;26.52;31.88
4814;BME280;15375;48.540;9.268;2023-06-14T13:00:39;96996.06;;;26.74;32.87
4814;BME280;15375;48.540;9.268;2023-06-14T13:03:05;96978.69;;;26.81;32.08
4814;BME280;15375;48.540;9.268;2023-06-14T13:05:30;96976.78;;;27.15;32.23
4814;BME280;15375;48.540;9.268;2023-06-14T13:07:58;96978.09;;;27.27;31.96
4814;BME280;15375;48.540;9.268;2023-06-14T13:10:24;96984.34;;;27.20;32.40
4814;BME280;15375;48.540;9.268;2023-06-14T13:12:51;96981.56;;;27.46;33.25
4814;BME280;15375;48.540;9.268;2023-06-14T13:15:16;96969.56;;;27.72;32.66
4814;BME280;15375;48.540;9.268;2023-06-14T13:17:42;96974.84;;;27.75;32.76
4814;BME280;15375;48.540;9.268;2023-06-14T13:20:09;96982.00;;;27.63;32.37
4814;BME280;15375;48.540;9.268;2023-06-14T13:22:35;96993.50;;;27.86;32.32
4814;BME280;15375;48.540;9.268;2023-06-14T13:25:01;96988.97;;;27.70;31.82
4814;BME280;15375;48.540;9.268;2023-06-14T13:27:27;96982.59;;;27.04;31.86
4814;BME280;15375;48.540;9.268;2023-06-14T13:29:53;96981.00;;;27.35;32.24
4814;BME280;15375;48.540;9.268;2023-06-14T13:32:21;96990.50;;;27.58;31.15